createdAt,value
2015-08-08T00:00:11.806Z,95658
2015-08-08T00:00:30.259Z,95650
2015-08-08T00:00:48.729Z,95658
2015-08-08T00:01:07.604Z,95652
2015-08-08T00:01:26.042Z,95645
2015-08-08T00:01:44.526Z,95651
2015-08-08T00:02:03.513Z,95645
2015-08-08T00:02:21.935Z,95641
2015-08-08T00:02:40.388Z,95650
2015-08-08T00:02:58.937Z,95654
2015-08-08T00:03:17.452Z,95648
2015-08-08T00:03:35.968Z,95642
2015-08-08T00:03:54.610Z,95650
2015-08-08T00:04:13.189Z,95647
2015-08-08T00:04:31.954Z,95650
2015-08-08T00:04:50.579Z,95653
2015-08-08T00:05:09.066Z,95653
2015-08-08T00:05:27.519Z,95656
2015-08-08T00:05:45.972Z,95647
2015-08-08T00:06:04.521Z,95653
2015-08-08T00:06:22.989Z,95650
2015-08-08T00:06:41.411Z,95650
2015-08-08T00:06:59.788Z,95647
2015-08-08T00:07:18.273Z,95653
2015-08-08T00:07:36.866Z,95644
2015-08-08T00:07:55.337Z,95652
2015-08-08T00:08:13.743Z,95647
2015-08-08T00:08:32.197Z,95644
2015-08-08T00:08:50.681Z,95659
2015-08-08T00:09:08.667Z,95654
2015-08-08T00:09:27.230Z,95653
2015-08-08T00:09:46.042Z,95648
2015-08-08T00:10:04.606Z,95640
2015-08-08T00:10:23.184Z,95649
2015-08-08T00:10:42.106Z,95643
2015-08-08T00:11:00.656Z,95651
2015-08-08T00:11:19.171Z,95648
2015-08-08T00:11:37.656Z,95642
2015-08-08T00:11:56.156Z,95648
2015-08-08T00:12:14.626Z,95642
2015-08-08T00:12:33.236Z,95646
2015-08-08T00:12:51.673Z,95640
2015-08-08T00:13:10.082Z,95638
2015-08-08T00:13:28.582Z,95639
2015-08-08T00:13:46.988Z,95647
2015-08-08T00:14:05.412Z,95641
2015-08-08T00:14:23.834Z,95638
2015-08-08T00:14:41.630Z,95647
2015-08-08T00:15:00.068Z,95641
2015-08-08T00:15:18.664Z,95649
2015-08-08T00:15:37.054Z,95638
2015-08-08T00:15:55.507Z,95638
2015-08-08T00:16:13.900Z,95641
2015-08-08T00:16:32.416Z,95638
2015-08-08T00:16:51.041Z,95632
2015-08-08T00:17:09.556Z,95637
2015-08-08T00:17:28.074Z,95631
2015-08-08T00:17:46.621Z,95640
2015-08-08T00:18:05.011Z,95631
2015-08-08T00:18:23.622Z,95637
2015-08-08T00:18:41.341Z,95639
2015-08-08T00:18:59.247Z,95625
2015-08-08T00:19:17.719Z,95634
2015-08-08T00:19:36.312Z,95629
2015-08-08T00:19:55.062Z,95635
2015-08-08T00:20:13.736Z,95630
2015-08-08T00:20:32.330Z,95632
2015-08-08T00:20:51.002Z,95626
2015-08-08T00:21:09.611Z,95635
2015-08-08T00:21:28.159Z,95638
2015-08-08T00:21:46.987Z,95635
2015-08-08T00:22:05.456Z,95626
2015-08-08T00:22:24.130Z,95626
2015-08-08T00:22:42.833Z,95627
2015-08-08T00:23:01.302Z,95632
2015-08-08T00:23:19.913Z,95627
2015-08-08T00:23:38.351Z,95632
2015-08-08T00:23:57.022Z,95635
2015-08-08T00:24:15.554Z,95623
2015-08-08T00:24:33.946Z,95623
2015-08-08T00:24:52.431Z,95637
2015-08-08T00:25:10.978Z,95626
2015-08-08T00:25:30.073Z,95629
2015-08-08T00:25:48.651Z,95626
2015-08-08T00:26:07.245Z,95629
2015-08-08T00:26:25.950Z,95632
2015-08-08T00:26:44.341Z,95618
2015-08-08T00:27:02.903Z,95624
2015-08-08T00:27:21.544Z,95626
2015-08-08T00:27:39.530Z,95629
2015-08-08T00:27:58.202Z,95632
2015-08-08T00:28:16.671Z,95632
2015-08-08T00:28:35.251Z,95629
2015-08-08T00:28:53.907Z,95630
2015-08-08T00:29:12.361Z,95627
2015-08-08T00:29:30.128Z,95618
2015-08-08T00:29:49.050Z,95624
2015-08-08T00:30:07.925Z,95630
2015-08-08T00:30:26.441Z,95631
2015-08-08T00:30:45.005Z,95622
2015-08-08T00:31:03.552Z,95619
2015-08-08T00:31:22.240Z,95634
2015-08-08T00:31:40.696Z,95625
2015-08-08T00:31:59.336Z,95628
2015-08-08T00:32:18.399Z,95619
2015-08-08T00:32:36.932Z,95631
2015-08-08T00:32:55.588Z,95619
2015-08-08T00:33:14.276Z,95619
2015-08-08T00:33:33.152Z,95622
2015-08-08T00:33:51.761Z,95624
2015-08-08T00:34:10.152Z,95616
2015-08-08T00:34:28.652Z,95614
2015-08-08T00:34:47.263Z,95619
2015-08-08T00:35:05.935Z,95626
2015-08-08T00:35:24.779Z,95617
2015-08-08T00:35:43.344Z,95620
2015-08-08T00:36:01.751Z,95617
2015-08-08T00:36:20.126Z,95614
2015-08-08T00:36:38.611Z,95614
2015-08-08T00:36:57.033Z,95617
2015-08-08T00:37:15.439Z,95617
2015-08-08T00:37:34.080Z,95614
2015-08-08T00:37:52.769Z,95614
2015-08-08T00:38:11.144Z,95619
2015-08-08T00:38:29.566Z,95613
2015-08-08T00:38:48.209Z,95613
2015-08-08T00:39:06.709Z,95607
2015-08-08T00:39:25.099Z,95614
2015-08-08T00:39:43.758Z,95614
2015-08-08T00:40:02.148Z,95617
2015-08-08T00:40:20.633Z,95610
2015-08-08T00:40:38.695Z,95605
2015-08-08T00:40:57.072Z,95608
2015-08-08T00:41:15.635Z,95608
2015-08-08T00:41:34.400Z,95614
2015-08-08T00:41:52.793Z,95614
2015-08-08T00:42:11.402Z,95611
2015-08-08T00:42:29.824Z,95613
2015-08-08T00:42:48.232Z,95605
2015-08-08T00:43:06.935Z,95613
2015-08-08T00:43:25.357Z,95619
2015-08-08T00:43:44.094Z,95616
2015-08-08T00:44:02.594Z,95610
2015-08-08T00:44:20.437Z,95615
2015-08-08T00:44:38.922Z,95615
2015-08-08T00:44:57.299Z,95605
2015-08-08T00:45:15.799Z,95616
2015-08-08T00:45:34.439Z,95622
2015-08-08T00:45:53.034Z,95611
2015-08-08T00:46:11.503Z,95614
2015-08-08T00:46:29.940Z,95611
2015-08-08T00:46:48.331Z,95616
2015-08-08T00:47:06.803Z,95608
2015-08-08T00:47:25.240Z,95614
2015-08-08T00:47:43.787Z,95619
2015-08-08T00:48:02.430Z,95622
2015-08-08T00:48:21.149Z,95622
2015-08-08T00:48:39.633Z,95622
2015-08-08T00:48:58.088Z,95620
2015-08-08T00:49:16.947Z,95629
2015-08-08T00:49:35.604Z,95626
2015-08-08T00:49:54.106Z,95617
2015-08-08T00:50:12.621Z,95614
2015-08-08T00:50:31.231Z,95623
2015-08-08T00:50:49.621Z,95623
2015-08-08T00:51:08.372Z,95617
2015-08-08T00:51:26.794Z,95622
2015-08-08T00:51:45.529Z,95615
2015-08-08T00:52:03.906Z,95621
2015-08-08T00:52:22.484Z,95615
2015-08-08T00:52:40.984Z,95612
2015-08-08T00:52:59.362Z,95621
2015-08-08T00:53:18.002Z,95618
2015-08-08T00:53:36.862Z,95623
2015-08-08T00:53:55.377Z,95615
2015-08-08T00:54:13.770Z,95624
2015-08-08T00:54:32.332Z,95621
2015-08-08T00:54:50.817Z,95615
2015-08-08T00:55:09.256Z,95626
2015-08-08T00:55:27.866Z,95627
2015-08-08T00:55:46.288Z,95622
2015-08-08T00:56:04.945Z,95624
2015-08-08T00:56:23.398Z,95624
2015-08-08T00:56:41.992Z,95624
2015-08-08T00:57:00.585Z,95618
2015-08-08T00:57:18.978Z,95624
2015-08-08T00:57:37.478Z,95627
2015-08-08T00:57:55.994Z,95627
2015-08-08T00:58:14.433Z,95627
2015-08-08T00:58:32.855Z,95633
2015-08-08T00:58:51.496Z,95618
2015-08-08T00:59:10.138Z,95624
2015-08-08T00:59:28.966Z,95619
2015-08-08T00:59:47.513Z,95625
2015-08-08T01:00:05.984Z,95622
2015-08-08T01:00:24.734Z,95622
2015-08-08T01:00:43.234Z,95630
2015-08-08T01:01:02.031Z,95633
2015-08-08T01:01:20.408Z,95624
2015-08-08T01:01:38.908Z,95630
2015-08-08T01:01:57.627Z,95628
2015-08-08T01:02:16.176Z,95633
2015-08-08T01:02:34.629Z,95630
2015-08-08T01:02:53.004Z,95627
2015-08-08T01:03:10.990Z,95638
2015-08-08T01:03:29.381Z,95630
2015-08-08T01:03:47.803Z,95633
2015-08-08T01:04:06.381Z,95630
2015-08-08T01:04:25.070Z,95636
2015-08-08T01:04:44.023Z,95630
2015-08-08T01:05:02.570Z,95630
2015-08-08T01:05:20.947Z,95630
2015-08-08T01:05:39.525Z,95624
2015-08-08T01:05:57.322Z,95630
2015-08-08T01:06:16.121Z,95630
2015-08-08T01:06:34.574Z,95627
2015-08-08T01:06:53.027Z,95632
2015-08-08T01:07:11.434Z,95624
2015-08-08T01:07:29.826Z,95628
2015-08-08T01:07:48.467Z,95626
2015-08-08T01:08:06.998Z,95634
2015-08-08T01:08:25.531Z,95625
2015-08-08T01:08:44.328Z,95628
2015-08-08T01:09:03.031Z,95629
2015-08-08T01:09:21.674Z,95631
2015-08-08T01:09:40.361Z,95625
2015-08-08T01:09:58.846Z,95633
2015-08-08T01:10:17.440Z,95625
2015-08-08T01:10:35.910Z,95633
2015-08-08T01:10:54.535Z,95627
2015-08-08T01:11:13.113Z,95628
2015-08-08T01:11:32.037Z,95631
2015-08-08T01:11:50.490Z,95625
2015-08-08T01:12:09.084Z,95633
2015-08-08T01:12:27.664Z,95627
2015-08-08T01:12:46.289Z,95633
2015-08-08T01:13:04.664Z,95631
2015-08-08T01:13:23.383Z,95631
2015-08-08T01:13:42.166Z,95630
2015-08-08T01:14:00.604Z,95630
2015-08-08T01:14:19.073Z,95639
2015-08-08T01:14:37.590Z,95637
2015-08-08T01:14:56.215Z,95634
2015-08-08T01:15:14.637Z,95631
2015-08-08T01:15:33.092Z,95631
2015-08-08T01:15:51.561Z,95633
2015-08-08T01:16:10.123Z,95636
2015-08-08T01:16:28.733Z,95642
2015-08-08T01:16:47.390Z,95639
2015-08-08T01:17:06.234Z,95633
2015-08-08T01:17:24.718Z,95636
2015-08-08T01:17:43.518Z,95645
2015-08-08T01:18:02.393Z,95642
2015-08-08T01:18:20.784Z,95632
2015-08-08T01:18:39.613Z,95634
2015-08-08T01:18:58.082Z,95637
2015-08-08T01:19:16.675Z,95631
2015-08-08T01:19:35.443Z,95634
2015-08-08T01:19:53.927Z,95640
2015-08-08T01:20:12.380Z,95642
2015-08-08T01:20:30.912Z,95637
2015-08-08T01:20:49.368Z,95632
2015-08-08T01:21:08.024Z,95633
2015-08-08T01:21:26.430Z,95634
2015-08-08T01:21:44.292Z,95634
2015-08-08T01:22:02.870Z,95637
2015-08-08T01:22:21.323Z,95636
2015-08-08T01:22:39.715Z,95642
2015-08-08T01:22:58.152Z,95644
2015-08-08T01:23:16.543Z,95638
2015-08-08T01:23:34.918Z,95638
2015-08-08T01:23:53.685Z,95648
2015-08-08T01:24:12.326Z,95639
2015-08-08T01:24:30.748Z,95639
2015-08-08T01:24:49.172Z,95642
2015-08-08T01:25:07.578Z,95633
2015-08-08T01:25:26.140Z,95639
2015-08-08T01:25:44.549Z,95637
2015-08-08T01:26:03.205Z,95645
2015-08-08T01:26:21.596Z,95643
2015-08-08T01:26:40.002Z,95642
2015-08-08T01:26:58.535Z,95647
2015-08-08T01:27:17.035Z,95638
2015-08-08T01:27:35.441Z,95651
2015-08-08T01:27:53.912Z,95648
2015-08-08T01:28:12.553Z,95653
2015-08-08T01:28:31.365Z,95650
2015-08-08T01:28:49.945Z,95650
2015-08-08T01:29:08.367Z,95645
2015-08-08T01:29:26.883Z,95644
2015-08-08T01:29:45.352Z,95653
2015-08-08T01:30:03.807Z,95652
2015-08-08T01:30:22.182Z,95650
2015-08-08T01:30:40.588Z,95645
2015-08-08T01:30:58.965Z,95656
2015-08-08T01:31:17.387Z,95653
2015-08-08T01:31:36.043Z,95655
2015-08-08T01:31:54.529Z,95649
2015-08-08T01:32:13.342Z,95646
2015-08-08T01:32:32.045Z,95653
2015-08-08T01:32:50.781Z,95658
2015-08-08T01:33:09.422Z,95658
2015-08-08T01:33:27.922Z,95652
2015-08-08T01:33:46.422Z,95658
2015-08-08T01:34:04.924Z,95655
2015-08-08T01:34:23.690Z,95652
2015-08-08T01:34:42.283Z,95657
2015-08-08T01:35:01.238Z,95663
2015-08-08T01:35:19.894Z,95661
2015-08-08T01:35:38.456Z,95664
2015-08-08T01:35:56.959Z,95666
2015-08-08T01:36:15.647Z,95658
2015-08-08T01:36:34.366Z,95663
2015-08-08T01:36:52.819Z,95663
2015-08-08T01:37:11.633Z,95669
2015-08-08T01:37:30.196Z,95660
2015-08-08T01:37:48.602Z,95667
2015-08-08T01:38:06.994Z,95661
2015-08-08T01:38:25.572Z,95658
2015-08-08T01:38:44.087Z,95663
2015-08-08T01:39:02.528Z,95663
2015-08-08T01:39:20.903Z,95672
2015-08-08T01:39:38.622Z,95666
2015-08-08T01:39:57.075Z,95663
2015-08-08T01:40:15.577Z,95666
2015-08-08T01:40:34.014Z,95669
2015-08-08T01:40:52.639Z,95666
2015-08-08T01:41:11.313Z,95669
2015-08-08T01:41:29.922Z,95666
2015-08-08T01:41:48.735Z,95680
2015-08-08T01:42:07.361Z,95667
2015-08-08T01:42:26.158Z,95666
2015-08-08T01:42:43.986Z,95669
2015-08-08T01:43:02.377Z,95680
2015-08-08T01:43:21.082Z,95675
2015-08-08T01:43:39.707Z,95670
2015-08-08T01:43:58.629Z,95676
2015-08-08T01:44:17.069Z,95674
2015-08-08T01:44:35.491Z,95670
2015-08-08T01:44:54.007Z,95676
2015-08-08T01:45:12.554Z,95678
2015-08-08T01:45:30.945Z,95667
2015-08-08T01:45:49.398Z,95664
2015-08-08T01:46:07.886Z,95670
2015-08-08T01:46:26.401Z,95676
2015-08-08T01:46:45.011Z,95681
2015-08-08T01:47:03.464Z,95675
2015-08-08T01:47:21.996Z,95667
2015-08-08T01:47:40.480Z,95683
2015-08-08T01:47:58.887Z,95666
2015-08-08T01:48:17.357Z,95669
2015-08-08T01:48:35.982Z,95670
2015-08-08T01:48:54.545Z,95676
2015-08-08T01:49:12.984Z,95673
2015-08-08T01:49:31.531Z,95675
2015-08-08T01:49:50.094Z,95672
2015-08-08T01:50:08.687Z,95666
2015-08-08T01:50:27.174Z,95672
2015-08-08T01:50:45.549Z,95676
2015-08-08T01:51:04.096Z,95673
2015-08-08T01:51:22.535Z,95679
2015-08-08T01:51:40.957Z,95676
2015-08-08T01:51:59.520Z,95678
2015-08-08T01:52:18.148Z,95678
2015-08-08T01:52:36.694Z,95681
2015-08-08T01:52:55.304Z,95666
2015-08-08T01:53:13.882Z,95687
2015-08-08T01:53:32.805Z,95678
2015-08-08T01:53:51.352Z,95675
2015-08-08T01:54:09.930Z,95686
2015-08-08T01:54:28.402Z,95680
2015-08-08T01:54:47.120Z,95687
2015-08-08T01:55:05.511Z,95681
2015-08-08T01:55:23.982Z,95681
2015-08-08T01:55:42.529Z,95693
2015-08-08T01:56:01.357Z,95690
2015-08-08T01:56:19.794Z,95690
2015-08-08T01:56:38.420Z,95687
2015-08-08T01:56:56.905Z,95690
2015-08-08T01:57:15.326Z,95687
2015-08-08T01:57:34.033Z,95690
2015-08-08T01:57:52.501Z,95687
2015-08-08T01:58:10.939Z,95687
2015-08-08T01:58:29.330Z,95684
2015-08-08T01:58:47.955Z,95690
2015-08-08T01:59:06.565Z,95684
2015-08-08T01:59:24.987Z,95689
2015-08-08T01:59:43.582Z,95687
2015-08-08T02:00:02.192Z,95682
2015-08-08T02:00:20.786Z,95688
2015-08-08T02:00:39.241Z,95687
2015-08-08T02:00:57.756Z,95690
2015-08-08T02:01:16.444Z,95687
2015-08-08T02:01:34.821Z,95692
2015-08-08T02:01:53.399Z,95681
2015-08-08T02:02:12.071Z,95683
2015-08-08T02:02:30.948Z,95683
2015-08-08T02:02:49.338Z,95681
2015-08-08T02:03:08.213Z,95689
2015-08-08T02:03:26.604Z,95684
2015-08-08T02:03:45.262Z,95687
2015-08-08T02:04:03.637Z,95681
2015-08-08T02:04:22.106Z,95684
2015-08-08T02:04:40.811Z,95684
2015-08-08T02:04:59.233Z,95686
2015-08-08T02:05:17.764Z,95689
2015-08-08T02:05:36.156Z,95683
2015-08-08T02:05:54.937Z,95689
2015-08-08T02:06:13.359Z,95689
2015-08-08T02:06:31.781Z,95690
2015-08-08T02:06:50.440Z,95698
2015-08-08T02:07:08.862Z,95687
2015-08-08T02:07:27.237Z,95693
2015-08-08T02:07:46.005Z,95695
2015-08-08T02:08:04.661Z,95692
2015-08-08T02:08:23.130Z,95698
2015-08-08T02:08:41.506Z,95689
2015-08-08T02:09:00.084Z,95686
2015-08-08T02:09:18.615Z,95692
2015-08-08T02:09:37.084Z,95686
2015-08-08T02:09:55.524Z,95686
2015-08-08T02:10:13.993Z,95692
2015-08-08T02:10:32.618Z,95689
2015-08-08T02:10:51.354Z,95686
2015-08-08T02:11:09.979Z,95695
2015-08-08T02:11:28.667Z,95690
2015-08-08T02:11:47.028Z,95693
2015-08-08T02:12:05.403Z,95687
2015-08-08T02:12:23.935Z,95696
2015-08-08T02:12:42.748Z,95693
2015-08-08T02:13:01.436Z,95695
2015-08-08T02:13:20.264Z,95690
2015-08-08T02:13:38.701Z,95682
2015-08-08T02:13:57.641Z,95696
2015-08-08T02:14:15.469Z,95693
2015-08-08T02:14:33.891Z,95690
2015-08-08T02:14:52.316Z,95696
2015-08-08T02:15:10.706Z,95698
2015-08-08T02:15:29.081Z,95698
2015-08-08T02:15:47.551Z,95692
2015-08-08T02:16:05.957Z,95693
2015-08-08T02:16:24.770Z,95702
2015-08-08T02:16:43.285Z,95699
2015-08-08T02:17:01.772Z,95707
2015-08-08T02:17:20.381Z,95715
2015-08-08T02:17:38.975Z,95718
2015-08-08T02:17:57.461Z,95707
2015-08-08T02:18:16.024Z,95726
2015-08-08T02:18:34.492Z,95735
2015-08-08T02:18:53.073Z,95732
2015-08-08T02:19:11.651Z,95744
2015-08-08T02:19:30.026Z,95726
2015-08-08T02:19:48.463Z,95740
2015-08-08T02:20:07.075Z,95737
2015-08-08T02:20:25.559Z,95742
2015-08-08T02:20:43.934Z,95742
2015-08-08T02:21:02.702Z,95740
2015-08-08T02:21:21.155Z,95739
2015-08-08T02:21:39.592Z,95745
2015-08-08T02:21:58.016Z,95734
2015-08-08T02:22:16.438Z,95747
2015-08-08T02:22:34.875Z,95736
2015-08-08T02:22:53.375Z,95736
2015-08-08T02:23:11.752Z,95739
2015-08-08T02:23:30.143Z,95733
2015-08-08T02:23:48.627Z,95725
2015-08-08T02:24:07.333Z,95734
2015-08-08T02:24:25.895Z,95731
2015-08-08T02:24:44.504Z,95728
2015-08-08T02:25:03.086Z,95731
2015-08-08T02:25:21.492Z,95739
2015-08-08T02:25:39.992Z,95737
2015-08-08T02:25:58.445Z,95734
2015-08-08T02:26:16.883Z,95731
2015-08-08T02:26:35.352Z,95736
2015-08-08T02:26:53.915Z,95727
2015-08-08T02:27:12.464Z,95730
2015-08-08T02:27:31.010Z,95734
2015-08-08T02:27:49.729Z,95725
2015-08-08T02:28:08.184Z,95722
2015-08-08T02:28:26.622Z,95719
2015-08-08T02:28:45.575Z,95725
2015-08-08T02:29:04.030Z,95725
2015-08-08T02:29:22.468Z,95725
2015-08-08T02:29:41.046Z,95733
2015-08-08T02:29:59.468Z,95731
2015-08-08T02:30:18.173Z,95725
2015-08-08T02:30:36.610Z,95742
2015-08-08T02:30:55.032Z,95733
2015-08-08T02:31:13.409Z,95730
2015-08-08T02:31:31.878Z,95719
2015-08-08T02:31:50.393Z,95737
2015-08-08T02:32:08.786Z,95729
2015-08-08T02:32:27.380Z,95718
2015-08-08T02:32:45.989Z,95734
2015-08-08T02:33:04.567Z,95731
2015-08-08T02:33:22.944Z,95735
2015-08-08T02:33:41.679Z,95721
2015-08-08T02:34:00.085Z,95733
2015-08-08T02:34:18.634Z,95731
2015-08-08T02:34:37.399Z,95731
2015-08-08T02:34:55.790Z,95727
2015-08-08T02:35:14.276Z,95738
2015-08-08T02:35:32.667Z,95729
2015-08-08T02:35:51.073Z,95726
2015-08-08T02:36:09.558Z,95735
2015-08-08T02:36:28.138Z,95738
2015-08-08T02:36:46.825Z,95729
2015-08-08T02:37:05.560Z,95733
2015-08-08T02:37:23.952Z,95730
2015-08-08T02:37:42.624Z,95728
2015-08-08T02:38:01.046Z,95728
2015-08-08T02:38:19.594Z,95733
2015-08-08T02:38:38.031Z,95735
2015-08-08T02:38:56.844Z,95726
2015-08-08T02:39:15.469Z,95726
2015-08-08T02:39:34.050Z,95735
2015-08-08T02:39:52.738Z,95735
2015-08-08T02:40:11.269Z,95729
2015-08-08T02:40:29.817Z,95732
2015-08-08T02:40:48.192Z,95734
2015-08-08T02:41:05.942Z,95729
2015-08-08T02:41:24.398Z,95735
2015-08-08T02:41:43.101Z,95726
2015-08-08T02:42:01.554Z,95723
2015-08-08T02:42:20.179Z,95726
2015-08-08T02:42:39.008Z,95726
2015-08-08T02:42:57.414Z,95726
2015-08-08T02:43:15.883Z,95725
2015-08-08T02:43:34.401Z,95728
2015-08-08T02:43:52.948Z,95737
2015-08-08T02:44:11.620Z,95728
2015-08-08T02:44:30.060Z,95728
2015-08-08T02:44:48.701Z,95734
2015-08-08T02:45:07.279Z,95738
2015-08-08T02:45:25.701Z,95738
2015-08-08T02:45:44.295Z,95740
2015-08-08T02:46:02.811Z,95740
2015-08-08T02:46:21.280Z,95737
2015-08-08T02:46:39.861Z,95729
2015-08-08T02:46:58.377Z,95740
2015-08-08T02:47:17.017Z,95743
2015-08-08T02:47:35.784Z,95737
2015-08-08T02:47:54.268Z,95726
2015-08-08T02:48:12.753Z,95740
2015-08-08T02:48:31.424Z,95749
2015-08-08T02:48:50.193Z,95737
2015-08-08T02:49:08.849Z,95737
2015-08-08T02:49:27.443Z,95735
2015-08-08T02:49:46.038Z,95729
2015-08-08T02:50:04.553Z,95738
2015-08-08T02:50:23.132Z,95733
2015-08-08T02:50:41.571Z,95732
2015-08-08T02:51:00.180Z,95732
2015-08-08T02:51:18.743Z,95732
2015-08-08T02:51:37.446Z,95727
2015-08-08T02:51:55.918Z,95724
2015-08-08T02:52:14.418Z,95735
2015-08-08T02:52:32.871Z,95732
2015-08-08T02:52:51.326Z,95730
2015-08-08T02:53:09.748Z,95733
2015-08-08T02:53:27.498Z,95733
2015-08-08T02:53:45.936Z,95725
2015-08-08T02:54:04.421Z,95728
2015-08-08T02:54:23.046Z,95739
2015-08-08T02:54:41.499Z,95725
2015-08-08T02:55:00.142Z,95734
2015-08-08T02:55:18.688Z,95729
2015-08-08T02:55:37.204Z,95728
2015-08-08T02:55:55.769Z,95722
2015-08-08T02:56:14.206Z,95725
2015-08-08T02:56:32.706Z,95728
2015-08-08T02:56:51.162Z,95733
2015-08-08T02:57:09.678Z,95727
2015-08-08T02:57:28.209Z,95733
2015-08-08T02:57:46.803Z,95738
2015-08-08T02:58:04.898Z,95727
2015-08-08T02:58:23.694Z,95735
2015-08-08T02:58:42.085Z,95728
2015-08-08T02:59:00.571Z,95731
2015-08-08T02:59:19.181Z,95728
2015-08-08T02:59:37.743Z,95736
2015-08-08T02:59:56.308Z,95730
2015-08-08T03:00:14.964Z,95733
2015-08-08T03:00:33.667Z,95727
2015-08-08T03:00:52.388Z,95730
2015-08-08T03:01:10.919Z,95736
2015-08-08T03:01:29.310Z,95724
2015-08-08T03:01:47.700Z,95733
2015-08-08T03:02:06.452Z,95730
2015-08-08T03:02:25.031Z,95725
2015-08-08T03:02:43.452Z,95733
2015-08-08T03:03:01.876Z,95733
2015-08-08T03:03:20.283Z,95733
2015-08-08T03:03:38.767Z,95736
2015-08-08T03:03:57.143Z,95738
2015-08-08T03:04:15.674Z,95733
2015-08-08T03:04:34.049Z,95744
2015-08-08T03:04:52.424Z,95727
2015-08-08T03:05:10.395Z,95735
2015-08-08T03:05:29.176Z,95722
2015-08-08T03:05:47.551Z,95736
2015-08-08T03:06:05.992Z,95730
2015-08-08T03:06:24.367Z,95733
2015-08-08T03:06:42.992Z,95728
2015-08-08T03:07:01.556Z,95725
2015-08-08T03:07:19.994Z,95736
2015-08-08T03:07:38.416Z,95731
2015-08-08T03:07:56.197Z,95730
2015-08-08T03:08:14.792Z,95739
2015-08-08T03:08:33.620Z,95730
2015-08-08T03:08:52.167Z,95726
2015-08-08T03:09:10.590Z,95724
2015-08-08T03:09:29.544Z,95724
2015-08-08T03:09:48.184Z,95732
2015-08-08T03:10:06.608Z,95726
2015-08-08T03:10:25.061Z,95729
2015-08-08T03:10:43.842Z,95735
2015-08-08T03:11:02.407Z,95728
2015-08-08T03:11:20.954Z,95740
2015-08-08T03:11:38.829Z,95730
2015-08-08T03:11:57.376Z,95729
2015-08-08T03:12:15.971Z,95735
2015-08-08T03:12:34.534Z,95724
2015-08-08T03:12:52.971Z,95733
2015-08-08T03:13:11.646Z,95732
2015-08-08T03:13:30.334Z,95737
2015-08-08T03:13:48.834Z,95737
2015-08-08T03:14:07.383Z,95734
2015-08-08T03:14:25.914Z,95729
2015-08-08T03:14:44.555Z,95735
2015-08-08T03:15:02.961Z,95732
2015-08-08T03:15:21.399Z,95738
2015-08-08T03:15:39.977Z,95732
2015-08-08T03:15:58.477Z,95747
2015-08-08T03:16:17.043Z,95756
2015-08-08T03:16:35.559Z,95741
2015-08-08T03:16:57.168Z,95746
2015-08-08T03:17:15.747Z,95738
2015-08-08T03:17:34.325Z,95741
2015-08-08T03:17:53.263Z,95747
2015-08-08T03:18:11.858Z,95742
2015-08-08T03:18:30.374Z,95736
2015-08-08T03:18:48.765Z,95736
2015-08-08T03:19:07.358Z,95733
2015-08-08T03:19:25.814Z,95741
2015-08-08T03:19:44.329Z,95729
2015-08-08T03:20:02.735Z,95729
2015-08-08T03:20:21.300Z,95727
2015-08-08T03:20:39.737Z,95739
2015-08-08T03:20:58.425Z,95739
2015-08-08T03:21:16.958Z,95736
2015-08-08T03:21:35.505Z,95739
2015-08-08T03:21:54.161Z,95733
2015-08-08T03:22:12.849Z,95738
2015-08-08T03:22:31.460Z,95724
2015-08-08T03:22:50.054Z,95736
2015-08-08T03:23:08.491Z,95727
2015-08-08T03:23:26.947Z,95733
2015-08-08T03:23:45.540Z,95725
2015-08-08T03:24:04.087Z,95734
2015-08-08T03:24:22.574Z,95737
2015-08-08T03:24:41.152Z,95734
2015-08-08T03:24:59.605Z,95737
2015-08-08T03:25:18.370Z,95737
2015-08-08T03:25:36.810Z,95740
2015-08-08T03:25:55.294Z,95742
2015-08-08T03:26:13.794Z,95736
2015-08-08T03:26:32.437Z,95731
2015-08-08T03:26:51.124Z,95742
2015-08-08T03:27:09.812Z,95737
2015-08-08T03:27:28.423Z,95742
2015-08-08T03:27:46.970Z,95748
2015-08-08T03:28:05.470Z,95736
2015-08-08T03:28:23.986Z,95737
2015-08-08T03:28:42.582Z,95737
2015-08-08T03:29:01.128Z,95740
2015-08-08T03:29:19.519Z,95743
2015-08-08T03:29:37.896Z,95738
2015-08-08T03:29:56.412Z,95735
2015-08-08T03:30:14.865Z,95737
2015-08-08T03:30:33.429Z,95737
2015-08-08T03:30:52.086Z,95735
2015-08-08T03:31:10.523Z,95737
2015-08-08T03:31:29.007Z,95734
2015-08-08T03:31:47.384Z,95746
2015-08-08T03:32:05.931Z,95740
2015-08-08T03:32:24.525Z,95745
2015-08-08T03:32:43.057Z,95739
2015-08-08T03:33:01.682Z,95741
2015-08-08T03:33:20.292Z,95730
2015-08-08T03:33:38.888Z,95734
2015-08-08T03:33:57.357Z,95745
2015-08-08T03:34:15.748Z,95737
2015-08-08T03:34:34.373Z,95731
2015-08-08T03:34:53.031Z,95739
2015-08-08T03:35:11.500Z,95742
2015-08-08T03:35:30.047Z,95739
2015-08-08T03:35:48.673Z,95748
2015-08-08T03:36:07.095Z,95742
2015-08-08T03:36:25.563Z,95741
2015-08-08T03:36:44.003Z,95747
2015-08-08T03:37:02.503Z,95736
2015-08-08T03:37:20.956Z,95739
2015-08-08T03:37:39.536Z,95739
2015-08-08T03:37:58.192Z,95739
2015-08-08T03:38:16.708Z,95754
2015-08-08T03:38:35.208Z,95745
2015-08-08T03:38:53.679Z,95748
2015-08-08T03:39:12.429Z,95745
2015-08-08T03:39:30.851Z,95739
2015-08-08T03:39:49.806Z,95740
2015-08-08T03:40:08.212Z,95745
2015-08-08T03:40:26.728Z,95745
2015-08-08T03:40:45.386Z,95745
2015-08-08T03:41:03.761Z,95749
2015-08-08T03:41:22.136Z,95740
2015-08-08T03:41:40.730Z,95746
2015-08-08T03:41:59.154Z,95742
2015-08-08T03:42:17.639Z,95736
2015-08-08T03:42:36.139Z,95749
2015-08-08T03:42:54.563Z,95747
2015-08-08T03:43:13.328Z,95746
2015-08-08T03:43:31.906Z,95749
2015-08-08T03:43:50.407Z,95748
2015-08-08T03:44:09.439Z,95751
2015-08-08T03:44:28.361Z,95748
2015-08-08T03:44:47.191Z,95748
2015-08-08T03:45:05.597Z,95748
2015-08-08T03:45:24.206Z,95742
2015-08-08T03:45:42.628Z,95754
2015-08-08T03:46:01.052Z,95748
2015-08-08T03:46:19.521Z,95748
2015-08-08T03:46:38.021Z,95748
2015-08-08T03:46:56.445Z,95756
2015-08-08T03:47:15.007Z,95745
2015-08-08T03:47:33.413Z,95754
2015-08-08T03:47:51.869Z,95745
2015-08-08T03:48:10.400Z,95757
2015-08-08T03:48:28.790Z,95748
2015-08-08T03:48:47.400Z,95757
2015-08-08T03:49:05.964Z,95742
2015-08-08T03:49:24.636Z,95759
2015-08-08T03:49:43.167Z,95750
2015-08-08T03:50:01.763Z,95762
2015-08-08T03:50:20.279Z,95768
2015-08-08T03:50:38.763Z,95766
2015-08-08T03:50:57.375Z,95768
2015-08-08T03:51:15.953Z,95765
2015-08-08T03:51:34.593Z,95773
2015-08-08T03:51:53.205Z,95781
2015-08-08T03:52:12.002Z,95781
2015-08-08T03:52:30.564Z,95775
2015-08-08T03:52:49.173Z,95775
2015-08-08T03:53:07.738Z,95775
2015-08-08T03:53:26.129Z,95786
2015-08-08T03:53:44.769Z,95780
2015-08-08T03:54:03.552Z,95777
2015-08-08T03:54:21.927Z,95780
2015-08-08T03:54:40.052Z,95780
2015-08-08T03:54:58.679Z,95773
2015-08-08T03:55:17.195Z,95790
2015-08-08T03:55:36.039Z,95785
2015-08-08T03:55:54.634Z,95786
2015-08-08T03:56:13.321Z,95783
2015-08-08T03:56:31.805Z,95791
2015-08-08T03:56:50.352Z,95786
2015-08-08T03:57:08.761Z,95785
2015-08-08T03:57:27.276Z,95783
2015-08-08T03:57:45.839Z,95777
2015-08-08T03:58:04.466Z,95784
2015-08-08T03:58:22.919Z,95781
2015-08-08T03:58:41.356Z,95778